Dong Fang You 2 — BXEC — position and weather

sailwx.info

Track history (hours):
 
Tides and Currents Weather Stations Pressure Air Temp Water Temp Dewpoint Dewpoint Depression Visibility Wind Speed Wind Dir Waves Ship Positions

Dong Fang You 2

Last reported at 2016-Jul-30 01:33 UTC. Time now 2016-Jul-30 01:52 UTC.
Position N 21°05' E 110°29'.

Length 82 m; draft 3.2 m.

Type: Tanker. MMSI: 412464680.

Date/timePositionNaut miles runAvg speedWind from/ knotsBaromVisibWave heightAir tempDewpointWater temp
2016-Jul-30 01:33N 21°05' E 110°29'7 3.4
2016-Jul-29 23:31N 21°11' E 110°25'0 0.0
2016-Jul-29 22:31N 21°11' E 110°25'0 0.0
2016-Jul-29 21:25N 21°11' E 110°25'0 0.0
2016-Jul-29 20:19N 21°11' E 110°25'0 0.0
2016-Jul-29 19:31N 21°11' E 110°25'0 0.0
2016-Jul-29 18:22N 21°11' E 110°25'0 0.1
2016-Jul-29 16:31N 21°10' E 110°25'0 0.0
2016-Jul-29 12:28N 21°11' E 110°25'0 0.0
2016-Jul-29 11:22N 21°11' E 110°25'0 0.0
2016-Jul-29 10:31N 21°11' E 110°25'0 0.0
2016-Jul-29 06:07N 21°11' E 110°25'0 0.1
2016-Jul-29 05:22N 21°10' E 110°25'0 0.0
2016-Jul-29 02:22N 21°10' E 110°25'0 0.0
2016-Jul-29 01:16N 21°10' E 110°25'0 0.0
2016-Jul-29 00:29N 21°10' E 110°25'0 0.1
2016-Jul-28 23:17N 21°11' E 110°25'0 0.0
2016-Jul-28 22:32N 21°11' E 110°25'0 0.0
2016-Jul-28 21:26N 21°11' E 110°25'0 0.0
2016-Jul-28 20:32N 21°11' E 110°25'0 0.0
2016-Jul-28 19:33N 21°11' E 110°25'0 0.0
2016-Jul-28 18:29N 21°11' E 110°25'0 0.0
2016-Jul-28 17:29N 21°11' E 110°25'0 0.0
2016-Jul-28 11:17N 21°10' E 110°25'0 0.1
2016-Jul-28 10:18N 21°11' E 110°25'0 0.0
2016-Jul-28 07:30N 21°11' E 110°25'0 0.0
2016-Jul-28 06:21N 21°11' E 110°25'0 0.0
2016-Jul-28 05:30N 21°11' E 110°25'0 0.0
2016-Jul-28 04:27N 21°11' E 110°25'0 0.0
2016-Jul-28 00:24N 21°10' E 110°25'0 0.0
2016-Jul-27 23:33N 21°10' E 110°25'0 0.0
2016-Jul-27 22:33N 21°10' E 110°25'0 0.1
2016-Jul-27 21:09N 21°11' E 110°25'0 0.0
2016-Jul-27 20:33N 21°11' E 110°25'0 0.0
2016-Jul-27 19:30N 21°11' E 110°25'0 0.0
2016-Jul-27 17:27N 21°11' E 110°25'0 0.0
2016-Jul-27 16:15N 21°11' E 110°25'0 0.0
2016-Jul-27 11:15N 21°10' E 110°25'0 0.0
2016-Jul-27 10:25N 21°10' E 110°25'0 0.1
2016-Jul-27 09:21N 21°11' E 110°25'0 0.0
2016-Jul-27 08:09N 21°11' E 110°25'0 0.0
2016-Jul-27 07:30N 21°11' E 110°25'0 0.1
2016-Jul-27 06:33N 21°11' E 110°25'0 0.0
2016-Jul-27 05:21N 21°11' E 110°25'0 0.0
2016-Jul-27 04:21N 21°11' E 110°25'0 0.1
2016-Jul-27 03:27N 21°11' E 110°25'0 0.1
2016-Jul-27 02:30N 21°11' E 110°25'0 0.1
2016-Jul-27 01:33N 21°10' E 110°25'0 0.0
2016-Jul-26 23:24N 21°10' E 110°25'0 0.1
2016-Jul-26 22:18N 21°10' E 110°25'0 0.0
2016-Jul-26 21:30N 21°10' E 110°25'0 0.1
2016-Jul-26 20:30N 21°11' E 110°25'0 0.0
2016-Jul-26 19:33N 21°11' E 110°25'0 0.0
2016-Jul-26 17:30N 21°11' E 110°25'0 0.1
2016-Jul-26 16:33N 21°11' E 110°25'0 0.0
2016-Jul-26 11:24N 21°10' E 110°25'0 0.0
2016-Jul-26 10:21N 21°10' E 110°25'0 0.0
2016-Jul-26 09:18N 21°10' E 110°25'0 0.0
2016-Jul-26 06:33N 21°11' E 110°25'  
2016-Jul-21 09:33N 22°12' E 113°47'231 9.6
2016-Jul-20 09:34N 20°10' E 110°16'  
Track history (hours):
 
Tides and Currents Weather Stations Pressure Air Temp Water Temp Dewpoint Dewpoint Depression Visibility Wind Speed Wind Dir Waves Ship Positions

Dong Fang You 2

Last reported at 2016-Jul-30 01:33 UTC. Time now 2016-Jul-30 01:52 UTC.
Position N 21°05' E 110°29'.

Length 82 m; draft 3.2 m.

Type: Tanker. MMSI: 412464680.

Date/timePositionNaut miles runAvg speedWind from/ knotsBaromVisibWave heightAir tempDewpointWater temp
2016-Jul-30 01:33N 21°05' E 110°29'7 3.4
2016-Jul-29 23:31N 21°11' E 110°25'0 0.0
2016-Jul-29 22:31N 21°11' E 110°25'0 0.0
2016-Jul-29 21:25N 21°11' E 110°25'0 0.0
2016-Jul-29 20:19N 21°11' E 110°25'0 0.0
2016-Jul-29 19:31N 21°11' E 110°25'0 0.0
2016-Jul-29 18:22N 21°11' E 110°25'0 0.1
2016-Jul-29 16:31N 21°10' E 110°25'0 0.0
2016-Jul-29 12:28N 21°11' E 110°25'0 0.0
2016-Jul-29 11:22N 21°11' E 110°25'0 0.0
2016-Jul-29 10:31N 21°11' E 110°25'0 0.0
2016-Jul-29 06:07N 21°11' E 110°25'0 0.1
2016-Jul-29 05:22N 21°10' E 110°25'0 0.0
2016-Jul-29 02:22N 21°10' E 110°25'0 0.0
2016-Jul-29 01:16N 21°10' E 110°25'0 0.0
2016-Jul-29 00:29N 21°10' E 110°25'0 0.1
2016-Jul-28 23:17N 21°11' E 110°25'0 0.0
2016-Jul-28 22:32N 21°11' E 110°25'0 0.0
2016-Jul-28 21:26N 21°11' E 110°25'0 0.0
2016-Jul-28 20:32N 21°11' E 110°25'0 0.0
2016-Jul-28 19:33N 21°11' E 110°25'0 0.0
2016-Jul-28 18:29N 21°11' E 110°25'0 0.0
2016-Jul-28 17:29N 21°11' E 110°25'0 0.0
2016-Jul-28 11:17N 21°10' E 110°25'0 0.1
2016-Jul-28 10:18N 21°11' E 110°25'0 0.0
2016-Jul-28 07:30N 21°11' E 110°25'0 0.0
2016-Jul-28 06:21N 21°11' E 110°25'0 0.0
2016-Jul-28 05:30N 21°11' E 110°25'0 0.0
2016-Jul-28 04:27N 21°11' E 110°25'0 0.0
2016-Jul-28 00:24N 21°10' E 110°25'0 0.0
2016-Jul-27 23:33N 21°10' E 110°25'0 0.0
2016-Jul-27 22:33N 21°10' E 110°25'0 0.1
2016-Jul-27 21:09N 21°11' E 110°25'0 0.0
2016-Jul-27 20:33N 21°11' E 110°25'0 0.0
2016-Jul-27 19:30N 21°11' E 110°25'0 0.0
2016-Jul-27 17:27N 21°11' E 110°25'0 0.0
2016-Jul-27 16:15N 21°11' E 110°25'0 0.0
2016-Jul-27 11:15N 21°10' E 110°25'0 0.0
2016-Jul-27 10:25N 21°10' E 110°25'0 0.1
2016-Jul-27 09:21N 21°11' E 110°25'0 0.0
2016-Jul-27 08:09N 21°11' E 110°25'0 0.0
2016-Jul-27 07:30N 21°11' E 110°25'0 0.1
2016-Jul-27 06:33N 21°11' E 110°25'0 0.0
2016-Jul-27 05:21N 21°11' E 110°25'0 0.0
2016-Jul-27 04:21N 21°11' E 110°25'0 0.1
2016-Jul-27 03:27N 21°11' E 110°25'0 0.1
2016-Jul-27 02:30N 21°11' E 110°25'0 0.1
2016-Jul-27 01:33N 21°10' E 110°25'0 0.0
2016-Jul-26 23:24N 21°10' E 110°25'0 0.1
2016-Jul-26 22:18N 21°10' E 110°25'0 0.0
2016-Jul-26 21:30N 21°10' E 110°25'0 0.1
2016-Jul-26 20:30N 21°11' E 110°25'0 0.0
2016-Jul-26 19:33N 21°11' E 110°25'0 0.0
2016-Jul-26 17:30N 21°11' E 110°25'0 0.1
2016-Jul-26 16:33N 21°11' E 110°25'0 0.0
2016-Jul-26 11:24N 21°10' E 110°25'0 0.0
2016-Jul-26 10:21N 21°10' E 110°25'0 0.0
2016-Jul-26 09:18N 21°10' E 110°25'0 0.0
2016-Jul-26 06:33N 21°11' E 110°25'  
2016-Jul-21 09:33N 22°12' E 113°47'231 9.6
2016-Jul-20 09:34N 20°10' E 110°16'  

Dump ship's entire track history